sensor_id;sensor_type;location;lat;lon;timestamp;pressure;altitude;pressure_sealevel;temperature;humidity
78685;BME280;68002;52.310;6.990;2023-03-01T00:01:06;102826.97;;;-2.63;65.72
78685;BME280;68002;52.310;6.990;2023-03-01T00:03:32;102813.00;;;-2.65;64.57
78685;BME280;68002;52.310;6.990;2023-03-01T00:05:58;102809.56;;;-2.70;65.98
78685;BME280;68002;52.310;6.990;2023-03-01T00:08:26;102810.44;;;-2.69;65.59
78685;BME280;68002;52.310;6.990;2023-03-01T00:11:05;102809.59;;;-2.73;68.32
78685;BME280;68002;52.310;6.990;2023-03-01T00:13:31;102810.44;;;-2.74;66.20
78685;BME280;68002;52.310;6.990;2023-03-01T00:15:57;102793.88;;;-2.82;65.47
78685;BME280;68002;52.310;6.990;2023-03-01T00:18:22;102804.38;;;-2.83;65.98
78685;BME280;68002;52.310;6.990;2023-03-01T00:20:54;102803.53;;;-2.84;66.43
78685;BME280;68002;52.310;6.990;2023-03-01T00:23:20;102803.53;;;-2.88;65.38
78685;BME280;68002;52.310;6.990;2023-03-01T00:25:45;102806.16;;;-2.88;66.27
78685;BME280;68002;52.310;6.990;2023-03-01T00:28:11;102797.44;;;-2.92;66.14
78685;BME280;68002;52.310;6.990;2023-03-01T00:30:36;102800.03;;;-2.90;65.63
78685;BME280;68002;52.310;6.990;2023-03-01T00:33:01;102801.78;;;-2.91;67.90
78685;BME280;68002;52.310;6.990;2023-03-01T00:35:26;102802.66;;;-2.92;65.60
78685;BME280;68002;52.310;6.990;2023-03-01T00:37:52;102802.69;;;-2.95;65.73
78685;BME280;68002;52.310;6.990;2023-03-01T00:40:17;102799.22;;;-2.97;66.18
78685;BME280;68002;52.310;6.990;2023-03-01T00:42:42;102800.09;;;-2.99;66.20
78685;BME280;68002;52.310;6.990;2023-03-01T00:45:07;102805.31;;;-3.01;65.86
78685;BME280;68002;52.310;6.990;2023-03-01T00:47:33;102807.97;;;-3.04;67.63
78685;BME280;68002;52.310;6.990;2023-03-01T00:49:58;102801.84;;;-3.04;66.83
78685;BME280;68002;52.310;6.990;2023-03-01T00:52:23;102797.47;;;-3.06;66.50
78685;BME280;68002;52.310;6.990;2023-03-01T00:54:52;102794.00;;;-3.03;65.86
78685;BME280;68002;52.310;6.990;2023-03-01T00:57:17;102799.25;;;-3.06;67.62
78685;BME280;68002;52.310;6.990;2023-03-01T00:59:42;102801.00;;;-3.08;66.92
78685;BME280;68002;52.310;6.990;2023-03-01T01:02:07;102805.38;;;-3.10;66.88
78685;BME280;68002;52.310;6.990;2023-03-01T01:04:32;102807.97;;;-3.13;67.05
78685;BME280;68002;52.310;6.990;2023-03-01T01:06:58;102795.78;;;-3.17;67.45
78685;BME280;68002;52.310;6.990;2023-03-01T01:09:23;102802.75;;;-3.16;67.46
78685;BME280;68002;52.310;6.990;2023-03-01T01:11:50;102797.53;;;-3.19;67.84
78685;BME280;68002;52.310;6.990;2023-03-01T01:14:16;102792.31;;;-3.22;67.42
78685;BME280;68002;52.310;6.990;2023-03-01T01:16:41;102782.72;;;-3.22;67.24
78685;BME280;68002;52.310;6.990;2023-03-01T01:19:07;102787.94;;;-3.22;67.18
78685;BME280;68002;52.310;6.990;2023-03-01T01:21:32;102787.06;;;-3.24;66.62
78685;BME280;68002;52.310;6.990;2023-03-01T01:23:58;102783.59;;;-3.26;66.36
78685;BME280;68002;52.310;6.990;2023-03-01T01:26:27;102781.88;;;-3.28;67.10
78685;BME280;68002;52.310;6.990;2023-03-01T01:28:53;102777.50;;;-3.31;67.72
78685;BME280;68002;52.310;6.990;2023-03-01T01:31:19;102777.50;;;-3.31;67.51
78685;BME280;68002;52.310;6.990;2023-03-01T01:33:45;102768.78;;;-3.33;67.62
78685;BME280;68002;52.310;6.990;2023-03-01T01:36:10;102768.81;;;-3.34;67.84
78685;BME280;68002;52.310;6.990;2023-03-01T01:38:37;102772.28;;;-3.38;66.88
78685;BME280;68002;52.310;6.990;2023-03-01T01:41:02;102771.44;;;-3.40;67.65
78685;BME280;68002;52.310;6.990;2023-03-01T01:43:32;102780.16;;;-3.41;67.44
78685;BME280;68002;52.310;6.990;2023-03-01T01:46:04;102771.44;;;-3.43;66.81
78685;BME280;68002;52.310;6.990;2023-03-01T01:49:01;102766.22;;;-3.43;68.96
78685;BME280;68002;52.310;6.990;2023-03-01T01:51:31;102753.16;;;-3.49;68.85
78685;BME280;68002;52.310;6.990;2023-03-01T01:53:59;102764.47;;;-3.47;71.83
78685;BME280;68002;52.310;6.990;2023-03-01T01:56:26;102758.38;;;-3.49;68.19
78685;BME280;68002;52.310;6.990;2023-03-01T01:58:53;102757.50;;;-3.51;68.24
78685;BME280;68002;52.310;6.990;2023-03-01T02:01:19;102754.03;;;-3.56;68.38
78685;BME280;68002;52.310;6.990;2023-03-01T02:03:46;102761.88;;;-3.53;67.77
78685;BME280;68002;52.310;6.990;2023-03-01T02:06:22;102751.41;;;-3.55;68.38
78685;BME280;68002;52.310;6.990;2023-03-01T02:08:51;102753.16;;;-3.51;67.21
78685;BME280;68002;52.310;6.990;2023-03-01T02:11:18;102744.47;;;-3.57;68.18
78685;BME280;68002;52.310;6.990;2023-03-01T02:13:47;102745.34;;;-3.60;68.74
78685;BME280;68002;52.310;6.990;2023-03-01T02:16:14;102743.59;;;-3.61;68.94
78685;BME280;68002;52.310;6.990;2023-03-01T02:18:41;102732.25;;;-3.58;68.06
78685;BME280;68002;52.310;6.990;2023-03-01T02:21:38;102739.22;;;-3.59;68.61
78685;BME280;68002;52.310;6.990;2023-03-01T02:26:55;102738.34;;;-3.62;68.57
78685;BME280;68002;52.310;6.990;2023-03-01T02:29:22;102728.78;;;-3.62;68.82
78685;BME280;68002;52.310;6.990;2023-03-01T02:31:47;102726.19;;;-3.66;68.75
78685;BME280;68002;52.310;6.990;2023-03-01T02:34:18;102736.63;;;-3.63;68.34
78685;BME280;68002;52.310;6.990;2023-03-01T02:36:54;102735.75;;;-3.65;69.51
78685;BME280;68002;52.310;6.990;2023-03-01T02:39:28;102732.28;;;-3.67;68.16
78685;BME280;68002;52.310;6.990;2023-03-01T02:41:56;102728.78;;;-3.68;69.59
78685;BME280;68002;52.310;6.990;2023-03-01T02:44:22;102730.56;;;-3.68;69.28
78685;BME280;68002;52.310;6.990;2023-03-01T02:46:50;102728.78;;;-3.63;69.65
78685;BME280;68002;52.310;6.990;2023-03-01T02:49:29;102733.16;;;-3.65;68.75
78685;BME280;68002;52.310;6.990;2023-03-01T02:52:21;102727.94;;;-3.67;70.11
78685;BME280;68002;52.310;6.990;2023-03-01T02:55:10;102727.06;;;-3.69;68.73
78685;BME280;68002;52.310;6.990;2023-03-01T02:57:36;102720.06;;;-3.70;70.42
78685;BME280;68002;52.310;6.990;2023-03-01T03:00:14;102715.75;;;-3.72;69.76
78685;BME280;68002;52.310;6.990;2023-03-01T03:02:40;102713.97;;;-3.73;70.89
78685;BME280;68002;52.310;6.990;2023-03-01T03:05:12;102720.09;;;-3.76;69.21
78685;BME280;68002;52.310;6.990;2023-03-01T03:07:41;102719.19;;;-3.73;69.65
78685;BME280;68002;52.310;6.990;2023-03-01T03:10:12;102721.84;;;-3.76;69.03
78685;BME280;68002;52.310;6.990;2023-03-01T03:12:39;102723.59;;;-3.78;69.55
78685;BME280;68002;52.310;6.990;2023-03-01T03:15:05;102717.47;;;-3.80;70.07
78685;BME280;68002;52.310;6.990;2023-03-01T03:17:31;102719.25;;;-3.79;70.70
78685;BME280;68002;52.310;6.990;2023-03-01T03:19:56;102727.09;;;-3.79;71.25
78685;BME280;68002;52.310;6.990;2023-03-01T03:22:21;102728.81;;;-3.80;70.84
78685;BME280;68002;52.310;6.990;2023-03-01T03:24:46;102719.22;;;-3.82;69.58
78685;BME280;68002;52.310;6.990;2023-03-01T03:27:11;102720.09;;;-3.80;70.80
78685;BME280;68002;52.310;6.990;2023-03-01T03:29:37;102717.50;;;-3.83;70.72
78685;BME280;68002;52.310;6.990;2023-03-01T03:32:02;102720.97;;;-3.78;69.48
78685;BME280;68002;52.310;6.990;2023-03-01T03:34:27;102718.34;;;-3.78;69.34
78685;BME280;68002;52.310;6.990;2023-03-01T03:36:56;102711.41;;;-3.79;69.90
78685;BME280;68002;52.310;6.990;2023-03-01T03:39:23;102705.28;;;-3.80;69.52
78685;BME280;68002;52.310;6.990;2023-03-01T03:41:48;102705.31;;;-3.83;69.28
78685;BME280;68002;52.310;6.990;2023-03-01T03:44:13;102712.28;;;-3.86;69.26
78685;BME280;68002;52.310;6.990;2023-03-01T03:46:38;102706.19;;;-3.93;68.50
78685;BME280;68002;52.310;6.990;2023-03-01T03:49:04;102715.78;;;-3.90;69.28
78685;BME280;68002;52.310;6.990;2023-03-01T03:51:29;102712.28;;;-3.95;68.66
78685;BME280;68002;52.310;6.990;2023-03-01T03:53:54;102718.38;;;-3.95;69.57
78685;BME280;68002;52.310;6.990;2023-03-01T03:56:19;102718.41;;;-3.98;70.00
78685;BME280;68002;52.310;6.990;2023-03-01T03:58:44;102707.06;;;-3.98;70.58
78685;BME280;68002;52.310;6.990;2023-03-01T04:01:10;102708.81;;;-3.97;71.47
78685;BME280;68002;52.310;6.990;2023-03-01T04:03:35;102709.66;;;-3.97;69.96
78685;BME280;68002;52.310;6.990;2023-03-01T04:06:01;102707.94;;;-3.96;70.48
78685;BME280;68002;52.310;6.990;2023-03-01T04:08:27;102704.47;;;-4.01;71.41
78685;BME280;68002;52.310;6.990;2023-03-01T04:10:57;102701.84;;;-3.98;70.26
78685;BME280;68002;52.310;6.990;2023-03-01T04:13:23;102698.38;;;-4.03;71.29
78685;BME280;68002;52.310;6.990;2023-03-01T04:15:49;102696.59;;;-4.04;70.77
78685;BME280;68002;52.310;6.990;2023-03-01T04:18:16;102698.38;;;-4.06;70.16
78685;BME280;68002;52.310;6.990;2023-03-01T04:20:43;102687.03;;;-4.05;70.87
78685;BME280;68002;52.310;6.990;2023-03-01T04:23:19;102694.88;;;-4.04;71.32
78685;BME280;68002;52.310;6.990;2023-03-01T04:25:58;102687.06;;;-4.07;71.54
78685;BME280;68002;52.310;6.990;2023-03-01T04:28:27;102681.81;;;-4.10;71.72
78685;BME280;68002;52.310;6.990;2023-03-01T04:30:54;102672.25;;;-4.16;71.26
78685;BME280;68002;52.310;6.990;2023-03-01T04:33:21;102668.78;;;-4.15;71.07
78685;BME280;68002;52.310;6.990;2023-03-01T04:35:46;102668.75;;;-4.12;71.29
78685;BME280;68002;52.310;6.990;2023-03-01T04:38:12;102665.28;;;-4.14;71.18
78685;BME280;68002;52.310;6.990;2023-03-01T04:40:37;102655.72;;;-4.15;70.95
78685;BME280;68002;52.310;6.990;2023-03-01T04:43:03;102654.84;;;-4.17;70.92
78685;BME280;68002;52.310;6.990;2023-03-01T04:45:28;102660.06;;;-4.17;70.54
78685;BME280;68002;52.310;6.990;2023-03-01T04:47:54;102662.69;;;-4.17;72.34
78685;BME280;68002;52.310;6.990;2023-03-01T04:50:20;102667.91;;;-4.18;72.04
78685;BME280;68002;52.310;6.990;2023-03-01T04:52:46;102669.63;;;-4.19;71.95
78685;BME280;68002;52.310;6.990;2023-03-01T04:55:12;102661.81;;;-4.20;72.09
78685;BME280;68002;52.310;6.990;2023-03-01T04:57:38;102668.78;;;-4.22;73.23
78685;BME280;68002;52.310;6.990;2023-03-01T05:00:05;102665.31;;;-4.20;72.23
78685;BME280;68002;52.310;6.990;2023-03-01T05:02:31;102663.53;;;-4.21;72.53
78685;BME280;68002;52.310;6.990;2023-03-01T05:04:56;102660.94;;;-4.24;71.83
78685;BME280;68002;52.310;6.990;2023-03-01T05:07:21;102665.28;;;-4.23;71.31
78685;BME280;68002;52.310;6.990;2023-03-01T05:09:46;102655.72;;;-4.25;72.63
78685;BME280;68002;52.310;6.990;2023-03-01T05:12:12;102642.66;;;-4.36;72.63
78685;BME280;68002;52.310;6.990;2023-03-01T05:14:38;102655.69;;;-4.27;75.12
78685;BME280;68002;52.310;6.990;2023-03-01T05:17:03;102645.28;;;-4.25;73.53
78685;BME280;68002;52.310;6.990;2023-03-01T05:19:29;102649.63;;;-4.26;73.49
78685;BME280;68002;52.310;6.990;2023-03-01T05:21:55;102640.94;;;-4.29;74.82
78685;BME280;68002;52.310;6.990;2023-03-01T05:24:20;102634.81;;;-4.30;73.43
78685;BME280;68002;52.310;6.990;2023-03-01T05:26:45;102633.09;;;-4.31;74.09
78685;BME280;68002;52.310;6.990;2023-03-01T05:29:10;102633.06;;;-4.32;75.52
78685;BME280;68002;52.310;6.990;2023-03-01T05:31:35;102630.50;;;-4.31;72.90
78685;BME280;68002;52.310;6.990;2023-03-01T05:34:01;102633.09;;;-4.31;74.11
78685;BME280;68002;52.310;6.990;2023-03-01T05:36:26;102637.44;;;-4.30;74.85
78685;BME280;68002;52.310;6.990;2023-03-01T05:38:51;102623.53;;;-4.29;75.50
78685;BME280;68002;52.310;6.990;2023-03-01T05:41:16;102621.75;;;-4.27;76.55
78685;BME280;68002;52.310;6.990;2023-03-01T05:43:41;102620.03;;;-4.26;75.32
78685;BME280;68002;52.310;6.990;2023-03-01T05:46:07;102619.16;;;-4.30;75.43
78685;BME280;68002;52.310;6.990;2023-03-01T05:48:32;102616.53;;;-4.30;75.36
78685;BME280;68002;52.310;6.990;2023-03-01T05:50:59;102624.38;;;-4.30;74.10
78685;BME280;68002;52.310;6.990;2023-03-01T05:53:24;102618.28;;;-4.33;77.27
78685;BME280;68002;52.310;6.990;2023-03-01T05:55:49;102617.41;;;-4.32;77.57
78685;BME280;68002;52.310;6.990;2023-03-01T05:58:17;102627.88;;;-4.29;76.72
78685;BME280;68002;52.310;6.990;2023-03-01T06:00:43;102618.28;;;-4.27;76.29
78685;BME280;68002;52.310;6.990;2023-03-01T06:03:10;102629.56;;;-4.19;75.41
78685;BME280;68002;52.310;6.990;2023-03-01T06:05:36;102623.47;;;-4.15;76.33
78685;BME280;68002;52.310;6.990;2023-03-01T06:08:01;102620.88;;;-4.15;75.93
78685;BME280;68002;52.310;6.990;2023-03-01T06:10:26;102620.00;;;-4.14;76.38
78685;BME280;68002;52.310;6.990;2023-03-01T06:12:53;102620.00;;;-4.11;76.34
78685;BME280;68002;52.310;6.990;2023-03-01T06:15:19;102633.91;;;-4.07;78.23
78685;BME280;68002;52.310;6.990;2023-03-01T06:17:45;102640.88;;;-4.03;75.98
78685;BME280;68002;52.310;6.990;2023-03-01T06:20:21;102643.47;;;-4.00;75.92
78685;BME280;68002;52.310;6.990;2023-03-01T06:22:48;102651.31;;;-3.96;77.93
78685;BME280;68002;52.310;6.990;2023-03-01T06:25:16;102644.31;;;-3.95;76.81
78685;BME280;68002;52.310;6.990;2023-03-01T06:27:42;102640.88;;;-3.97;76.39
78685;BME280;68002;52.310;6.990;2023-03-01T06:30:09;102653.91;;;-3.99;76.32
78685;BME280;68002;52.310;6.990;2023-03-01T06:32:35;102645.22;;;-4.04;75.81
78685;BME280;68002;52.310;6.990;2023-03-01T06:35:00;102638.28;;;-4.06;76.86
78685;BME280;68002;52.310;6.990;2023-03-01T06:37:26;102637.41;;;-4.05;74.36
78685;BME280;68002;52.310;6.990;2023-03-01T06:39:51;102645.25;;;-4.07;74.90
78685;BME280;68002;52.310;6.990;2023-03-01T06:42:16;102634.78;;;-4.10;73.82
78685;BME280;68002;52.310;6.990;2023-03-01T06:44:42;102621.75;;;-4.15;75.65
78685;BME280;68002;52.310;6.990;2023-03-01T06:47:07;102586.94;;;-4.33;73.78
78685;BME280;68002;52.310;6.990;2023-03-01T06:49:32;102577.38;;;-4.37;74.22
78685;BME280;68002;52.310;6.990;2023-03-01T06:51:57;102649.56;;;-3.98;73.77
78685;BME280;68002;52.310;6.990;2023-03-01T06:54:23;102626.09;;;-4.09;74.39
78685;BME280;68002;52.310;6.990;2023-03-01T06:56:49;102633.06;;;-4.05;73.93
78685;BME280;68002;52.310;6.990;2023-03-01T06:59:15;102607.84;;;-4.26;75.25
78685;BME280;68002;52.310;6.990;2023-03-01T07:01:41;102632.19;;;-4.15;74.59
78685;BME280;68002;52.310;6.990;2023-03-01T07:04:06;102653.94;;;-4.00;74.64
78685;BME280;68002;52.310;6.990;2023-03-01T07:06:31;102628.69;;;-4.14;75.51
78685;BME280;68002;52.310;6.990;2023-03-01T07:08:56;102605.22;;;-4.24;75.37
78685;BME280;68002;52.310;6.990;2023-03-01T07:11:22;102660.84;;;-3.84;76.35
78685;BME280;68002;52.310;6.990;2023-03-01T07:13:47;102661.75;;;-3.81;75.64
78685;BME280;68002;52.310;6.990;2023-03-01T07:16:12;102653.00;;;-3.78;76.01
78685;BME280;68002;52.310;6.990;2023-03-01T07:18:38;102597.28;;;-3.95;75.84
78685;BME280;68002;52.310;6.990;2023-03-01T07:21:05;102648.59;;;-3.66;75.94
78685;BME280;68002;52.310;6.990;2023-03-01T07:23:30;102652.03;;;-3.50;76.60
78685;BME280;68002;52.310;6.990;2023-03-01T07:25:55;102633.69;;;-3.46;76.77
78685;BME280;68002;52.310;6.990;2023-03-01T07:28:23;102574.53;;;-3.65;74.94
78685;BME280;68002;52.310;6.990;2023-03-01T07:30:48;102599.66;;;-3.40;75.47
78685;BME280;68002;52.310;6.990;2023-03-01T07:33:14;102636.13;;;-3.11;75.64
78685;BME280;68002;52.310;6.990;2023-03-01T07:35:39;102610.84;;;-3.12;75.90
78685;BME280;68002;52.310;6.990;2023-03-01T07:38:04;102628.13;;;-2.87;75.72
78685;BME280;68002;52.310;6.990;2023-03-01T07:40:29;102624.53;;;-2.75;75.48
78685;BME280;68002;52.310;6.990;2023-03-01T07:42:58;102640.13;;;-2.59;75.94
78685;BME280;68002;52.310;6.990;2023-03-01T07:45:24;102636.53;;;-2.46;74.58
78685;BME280;68002;52.310;6.990;2023-03-01T07:47:51;102625.16;;;-2.46;73.80
78685;BME280;68002;52.310;6.990;2023-03-01T07:50:16;102615.53;;;-2.43;74.03
78685;BME280;68002;52.310;6.990;2023-03-01T07:52:41;102642.41;;;-2.21;73.91
78685;BME280;68002;52.310;6.990;2023-03-01T07:55:07;102644.91;;;-2.09;74.46
78685;BME280;68002;52.310;6.990;2023-03-01T07:57:34;102637.81;;;-1.99;75.28
78685;BME280;68002;52.310;6.990;2023-03-01T07:59:59;102626.38;;;-1.92;73.94
78685;BME280;68002;52.310;6.990;2023-03-01T08:02:24;102623.66;;;-1.83;74.22
78685;BME280;68002;52.310;6.990;2023-03-01T08:04:49;102614.03;;;-1.81;73.83
78685;BME280;68002;52.310;6.990;2023-03-01T08:07:14;102612.91;;;-1.62;72.86
78685;BME280;68002;52.310;6.990;2023-03-01T08:09:40;102612.75;;;-1.52;73.12
78685;BME280;68002;52.310;6.990;2023-03-01T08:12:05;102611.75;;;-1.40;73.63
78685;BME280;68002;52.310;6.990;2023-03-01T08:14:31;102599.50;;;-1.40;72.27
78685;BME280;68002;52.310;6.990;2023-03-01T08:16:57;102612.38;;;-1.23;72.75
78685;BME280;68002;52.310;6.990;2023-03-01T08:19:23;102627.00;;;-1.06;72.72
78685;BME280;68002;52.310;6.990;2023-03-01T08:21:49;102614.66;;;-0.99;73.09
78685;BME280;68002;52.310;6.990;2023-03-01T08:24:15;102617.88;;;-0.82;71.74
78685;BME280;68002;52.310;6.990;2023-03-01T08:26:40;102633.44;;;-0.68;72.09
78685;BME280;68002;52.310;6.990;2023-03-01T08:29:05;102603.59;;;-0.64;72.82
78685;BME280;68002;52.310;6.990;2023-03-01T08:31:33;102621.56;;;-0.39;71.64
78685;BME280;68002;52.310;6.990;2023-03-01T08:34:00;102596.06;;;-0.34;70.93
78685;BME280;68002;52.310;6.990;2023-03-01T08:36:28;102616.44;;;0.01;71.60
78685;BME280;68002;52.310;6.990;2023-03-01T08:38:54;102589.53;;;0.30;74.13
78685;BME280;68002;52.310;6.990;2023-03-01T08:41:20;102583.34;;;1.10;74.55
78685;BME280;68002;52.310;6.990;2023-03-01T08:43:45;102603.59;;;2.11;75.09
78685;BME280;68002;52.310;6.990;2023-03-01T08:46:11;102593.84;;;3.00;75.01
78685;BME280;68002;52.310;6.990;2023-03-01T08:48:36;102580.44;;;3.84;69.74
78685;BME280;68002;52.310;6.990;2023-03-01T08:51:13;102589.63;;;4.45;59.94
78685;BME280;68002;52.310;6.990;2023-03-01T08:53:39;102587.81;;;4.92;61.81
78685;BME280;68002;52.310;6.990;2023-03-01T08:56:04;102586.75;;;5.39;61.75
78685;BME280;68002;52.310;6.990;2023-03-01T08:58:30;102570.50;;;5.88;61.97
78685;BME280;68002;52.310;6.990;2023-03-01T09:00:56;102579.09;;;6.52;59.68
78685;BME280;68002;52.310;6.990;2023-03-01T09:03:21;102578.66;;;6.98;54.97
78685;BME280;68002;52.310;6.990;2023-03-01T09:05:46;102584.00;;;7.51;53.78
78685;BME280;68002;52.310;6.990;2023-03-01T09:08:11;102577.75;;;7.52;51.78
78685;BME280;68002;52.310;6.990;2023-03-01T09:10:38;102560.44;;;7.78;52.74
78685;BME280;68002;52.310;6.990;2023-03-01T09:13:04;102558.19;;;7.70;49.61
78685;BME280;68002;52.310;6.990;2023-03-01T09:15:29;102568.56;;;8.09;49.02
78685;BME280;68002;52.310;6.990;2023-03-01T09:17:54;102578.66;;;8.52;48.05
78685;BME280;68002;52.310;6.990;2023-03-01T09:20:19;102554.75;;;8.51;46.45
78685;BME280;68002;52.310;6.990;2023-03-01T09:22:45;102574.31;;;8.98;47.79
78685;BME280;68002;52.310;6.990;2023-03-01T09:25:10;102573.28;;;9.61;48.17
78685;BME280;68002;52.310;6.990;2023-03-01T09:27:35;102553.97;;;10.00;44.46
78685;BME280;68002;52.310;6.990;2023-03-01T09:30:01;102547.31;;;10.07;42.80
78685;BME280;68002;52.310;6.990;2023-03-01T09:32:26;102550.88;;;10.36;42.44
78685;BME280;68002;52.310;6.990;2023-03-01T09:34:51;102545.91;;;10.58;41.41
78685;BME280;68002;52.310;6.990;2023-03-01T09:37:16;102558.06;;;10.90;43.25
78685;BME280;68002;52.310;6.990;2023-03-01T09:39:42;102508.78;;;11.06;40.33
78685;BME280;68002;52.310;6.990;2023-03-01T09:42:12;102548.19;;;11.04;38.35
78685;BME280;68002;52.310;6.990;2023-03-01T09:47:25;102542.31;;;11.12;38.23
78685;BME280;68002;52.310;6.990;2023-03-01T09:50:06;102483.53;;;11.23;34.81
78685;BME280;68002;52.310;6.990;2023-03-01T09:52:44;102549.66;;;11.88;35.84
78685;BME280;68002;52.310;6.990;2023-03-01T09:55:19;102513.00;;;11.62;35.53
78685;BME280;68002;52.310;6.990;2023-03-01T09:57:52;102535.59;;;11.97;35.57
78685;BME280;68002;52.310;6.990;2023-03-01T10:00:26;102537.63;;;12.19;35.91
78685;BME280;68002;52.310;6.990;2023-03-01T10:03:44;102510.56;;;12.22;33.15
78685;BME280;68002;52.310;6.990;2023-03-01T10:05:49;102538.13;;;12.37;32.86
78685;BME280;68002;52.310;6.990;2023-03-01T10:08:38;102534.50;;;12.86;33.48
78685;BME280;68002;52.310;6.990;2023-03-01T10:11:21;102514.50;;;12.42;30.16
78685;BME280;68002;52.310;6.990;2023-03-01T10:16:58;102523.88;;;11.73;32.68
78685;BME280;68002;52.310;6.990;2023-03-01T10:19:42;102503.91;;;11.65;33.09
78685;BME280;68002;52.310;6.990;2023-03-01T10:22:21;102477.44;;;11.98;32.72
78685;BME280;68002;52.310;6.990;2023-03-01T10:24:48;102465.00;;;12.09;32.75
78685;BME280;68002;52.310;6.990;2023-03-01T10:27:23;102486.38;;;12.60;31.62
78685;BME280;68002;52.310;6.990;2023-03-01T10:32:36;102468.16;;;12.76;31.83
78685;BME280;68002;52.310;6.990;2023-03-01T10:35:15;102501.22;;;13.13;29.78
78685;BME280;68002;52.310;6.990;2023-03-01T10:37:56;102386.66;;;12.41;30.25
78685;BME280;68002;52.310;6.990;2023-03-01T10:40:22;102487.00;;;13.34;29.74
78685;BME280;68002;52.310;6.990;2023-03-01T10:42:48;102485.56;;;13.41;28.62
78685;BME280;68002;52.310;6.990;2023-03-01T10:48:31;102498.50;;;13.71;27.77
78685;BME280;68002;52.310;6.990;2023-03-01T10:53:42;102499.28;;;13.15;29.36
78685;BME280;68002;52.310;6.990;2023-03-01T10:56:12;102444.94;;;12.98;28.73
78685;BME280;68002;52.310;6.990;2023-03-01T10:58:40;102448.66;;;12.85;29.16
78685;BME280;68002;52.310;6.990;2023-03-01T11:01:25;102486.03;;;12.88;28.61
78685;BME280;68002;52.310;6.990;2023-03-01T11:06:31;102448.59;;;13.21;27.57
78685;BME280;68002;52.310;6.990;2023-03-01T11:08:56;102460.16;;;13.45;27.60
78685;BME280;68002;52.310;6.990;2023-03-01T11:11:25;102454.72;;;13.23;26.79
78685;BME280;68002;52.310;6.990;2023-03-01T11:14:14;102500.53;;;13.56;26.46
78685;BME280;68002;52.310;6.990;2023-03-01T11:16:42;102481.31;;;13.15;26.91
78685;BME280;68002;52.310;6.990;2023-03-01T11:21:35;102482.28;;;13.14;28.10
78685;BME280;68002;52.310;6.990;2023-03-01T11:24:04;102445.84;;;12.86;27.88
78685;BME280;68002;52.310;6.990;2023-03-01T11:26:34;102462.16;;;12.72;28.65
78685;BME280;68002;52.310;6.990;2023-03-01T11:29:04;102455.84;;;13.32;28.33
78685;BME280;68002;52.310;6.990;2023-03-01T11:31:31;102474.50;;;13.57;27.33
78685;BME280;68002;52.310;6.990;2023-03-01T11:34:10;102461.09;;;13.22;26.78
78685;BME280;68002;52.310;6.990;2023-03-01T11:36:44;102484.13;;;13.13;28.50
78685;BME280;68002;52.310;6.990;2023-03-01T11:39:22;102471.41;;;13.50;28.39
78685;BME280;68002;52.310;6.990;2023-03-01T11:42:11;102462.91;;;13.22;28.13
78685;BME280;68002;52.310;6.990;2023-03-01T11:44:38;102447.69;;;13.44;27.18
78685;BME280;68002;52.310;6.990;2023-03-01T11:55:31;102464.44;;;14.04;27.10
78685;BME280;68002;52.310;6.990;2023-03-01T11:58:12;102416.53;;;13.42;27.48
78685;BME280;68002;52.310;6.990;2023-03-01T12:20:15;102394.06;;;14.20;25.85
78685;BME280;68002;52.310;6.990;2023-03-01T12:26:04;102415.88;;;13.95;25.11
78685;BME280;68002;52.310;6.990;2023-03-01T12:28:56;102422.28;;;14.70;25.42
78685;BME280;68002;52.310;6.990;2023-03-01T12:31:44;102405.66;;;15.17;24.88
78685;BME280;68002;52.310;6.990;2023-03-01T12:38:04;102403.31;;;14.60;24.86
78685;BME280;68002;52.310;6.990;2023-03-01T12:46:12;102407.53;;;14.09;26.23
78685;BME280;68002;52.310;6.990;2023-03-01T12:48:51;102393.22;;;14.20;24.95
78685;BME280;68002;52.310;6.990;2023-03-01T12:51:23;102399.34;;;13.66;25.13
78685;BME280;68002;52.310;6.990;2023-03-01T12:53:51;102361.22;;;13.72;26.04
78685;BME280;68002;52.310;6.990;2023-03-01T12:56:22;102375.59;;;13.27;25.37
78685;BME280;68002;52.310;6.990;2023-03-01T13:02:37;102386.41;;;13.82;25.55
78685;BME280;68002;52.310;6.990;2023-03-01T13:04:58;102384.41;;;14.18;25.08
78685;BME280;68002;52.310;6.990;2023-03-01T13:07:36;102349.84;;;14.56;24.17
78685;BME280;68002;52.310;6.990;2023-03-01T13:10:21;102361.50;;;14.23;23.96
78685;BME280;68002;52.310;6.990;2023-03-01T13:13:22;102364.94;;;14.36;25.07
78685;BME280;68002;52.310;6.990;2023-03-01T13:15:48;102347.00;;;13.92;25.17
78685;BME280;68002;52.310;6.990;2023-03-01T13:26:02;102342.19;;;15.13;22.68
78685;BME280;68002;52.310;6.990;2023-03-01T13:30:58;102331.19;;;15.16;23.80
78685;BME280;68002;52.310;6.990;2023-03-01T13:35:54;102318.47;;;15.28;23.79
78685;BME280;68002;52.310;6.990;2023-03-01T13:38:38;102293.22;;;15.08;23.54
78685;BME280;68002;52.310;6.990;2023-03-01T13:41:09;102308.22;;;14.80;23.61
78685;BME280;68002;52.310;6.990;2023-03-01T13:43:37;102302.38;;;14.96;24.45
78685;BME280;68002;52.310;6.990;2023-03-01T13:46:23;102331.66;;;15.42;23.54
78685;BME280;68002;52.310;6.990;2023-03-01T13:48:51;102319.91;;;15.52;23.62
78685;BME280;68002;52.310;6.990;2023-03-01T13:51:21;102329.50;;;15.75;24.17
78685;BME280;68002;52.310;6.990;2023-03-01T13:53:48;102310.44;;;15.37;24.04
78685;BME280;68002;52.310;6.990;2023-03-01T13:56:17;102301.28;;;15.49;23.94
78685;BME280;68002;52.310;6.990;2023-03-01T13:58:51;102297.69;;;15.69;23.87
78685;BME280;68002;52.310;6.990;2023-03-01T14:01:27;102300.16;;;15.91;23.89
78685;BME280;68002;52.310;6.990;2023-03-01T14:03:53;102287.28;;;15.35;24.32
78685;BME280;68002;52.310;6.990;2023-03-01T14:06:27;102296.94;;;15.58;24.54
78685;BME280;68002;52.310;6.990;2023-03-01T14:09:26;102303.50;;;16.24;24.17
78685;BME280;68002;52.310;6.990;2023-03-01T14:12:05;102288.41;;;16.11;23.32
78685;BME280;68002;52.310;6.990;2023-03-01T14:15:10;102300.28;;;15.90;23.15
78685;BME280;68002;52.310;6.990;2023-03-01T14:17:55;102281.78;;;16.54;22.90